Time;durP1;ratioP1;P1;durP2;ratioP2;P2;SDS_P1;SDS_P2;PMS_P1;PMS_P2;Temp;Humidity;BMP_temperature;BMP_pressure;BME280_temperature;BME280_humidity;BME280_pressure;Samples;Min_cycle;Max_cycle;Signal;HPM_P1;HPM_P2
2022/01/01 00:00:14;;;;;;;16.97;7.97;;;13.00;99.90;;;;;;5019994;28;20205;-79
2022/01/01 00:02:40;;;;;;;17.77;7.93;;;13.10;99.90;;;;;;5019543;28;20187;-78
2022/01/01 00:05:07;;;;;;;19.07;8.23;;;13.00;99.90;;;;;;5018545;28;20264;-79
2022/01/01 00:07:39;;;;;;;17.47;7.30;;;13.00;99.90;;;;;;5019629;28;20177;-78
2022/01/01 00:10:06;;;;;;;17.40;8.00;;;13.00;99.90;;;;;;5019300;28;20279;-78
2022/01/01 00:12:31;;;;;;;15.17;7.17;;;13.00;99.90;;;;;;5018969;28;20252;-78
2022/01/01 00:14:57;;;;;;;19.27;8.13;;;13.10;99.90;;;;;;5018676;28;20220;-79
2022/01/01 00:17:22;;;;;;;18.93;8.07;;;13.00;99.90;;;;;;5019201;28;20201;-78
2022/01/01 00:19:48;;;;;;;21.13;9.43;;;13.00;99.90;;;;;;5017156;28;20624;-79
2022/01/01 00:22:14;;;;;;;20.57;10.20;;;13.00;99.90;;;;;;5019322;28;20674;-78
2022/01/01 00:24:39;;;;;;;18.60;9.37;;;13.10;99.90;;;;;;5021538;28;20180;-79
2022/01/01 00:27:05;;;;;;;15.43;9.10;;;13.10;99.90;;;;;;5019524;28;20208;-78
2022/01/01 00:29:30;;;;;;;18.17;9.67;;;13.10;99.90;;;;;;5016999;28;20203;-78
2022/01/01 00:31:56;;;;;;;20.43;10.40;;;13.10;99.90;;;;;;5018245;28;20184;-78
2022/01/01 00:34:21;;;;;;;20.70;9.53;;;13.10;99.90;;;;;;5020516;28;20686;-78
2022/01/01 00:36:47;;;;;;;14.47;8.60;;;13.00;99.90;;;;;;5017651;28;20184;-79
2022/01/01 00:39:12;;;;;;;22.73;9.57;;;13.10;99.90;;;;;;5017233;28;20552;-78
2022/01/01 00:41:38;;;;;;;15.40;7.37;;;13.10;99.90;;;;;;5020694;28;20189;-79
2022/01/01 00:44:04;;;;;;;16.37;7.87;;;13.10;99.90;;;;;;5019656;28;20175;-80
2022/01/01 00:46:30;;;;;;;15.53;7.83;;;13.10;99.90;;;;;;5019476;28;20177;-79
2022/01/01 00:48:55;;;;;;;20.40;8.67;;;13.00;99.90;;;;;;5016856;28;20180;-79
2022/01/01 00:51:21;;;;;;;12.27;7.27;;;13.00;99.90;;;;;;5017708;28;20204;-78
2022/01/01 00:53:47;;;;;;;20.93;7.27;;;13.00;99.90;;;;;;5017772;28;20189;-80
2022/01/01 00:56:13;;;;;;;17.53;7.30;;;13.00;99.90;;;;;;5016399;28;20181;-79
2022/01/01 00:58:38;;;;;;;16.77;6.80;;;13.00;99.90;;;;;;5018033;28;20173;-79
2022/01/01 01:01:05;;;;;;;22.50;7.43;;;13.00;99.90;;;;;;5016834;28;20648;-79
2022/01/01 01:03:31;;;;;;;16.13;6.83;;;13.00;99.90;;;;;;5017781;28;20172;-79
2022/01/01 01:05:59;;;;;;;19.00;7.30;;;13.10;99.90;;;;;;5018752;28;20232;-79
2022/01/01 01:08:25;;;;;;;13.93;7.10;;;13.00;99.90;;;;;;5019832;28;20200;-79
2022/01/01 01:10:50;;;;;;;15.10;7.00;;;13.00;99.90;;;;;;5018929;28;20192;-79
2022/01/01 01:13:16;;;;;;;15.57;7.43;;;13.00;99.90;;;;;;5016325;28;20219;-78
2022/01/01 01:15:43;;;;;;;11.30;6.50;;;13.00;99.90;;;;;;5016161;28;20180;-79
2022/01/01 01:18:09;;;;;;;18.43;7.20;;;13.00;99.90;;;;;;5016691;28;20656;-79
2022/01/01 01:20:35;;;;;;;19.20;7.53;;;13.00;99.90;;;;;;5016880;28;20196;-80
2022/01/01 01:23:01;;;;;;;18.63;7.53;;;13.00;99.90;;;;;;5016960;28;20176;-79
2022/01/01 01:25:37;;;;;;;21.20;8.40;;;13.00;99.90;;;;;;5017628;28;20611;-79
2022/01/01 01:28:07;;;;;;;16.87;7.27;;;13.00;99.90;;;;;;5016921;28;20215;-79
2022/01/01 01:30:36;;;;;;;18.00;8.40;;;13.00;99.90;;;;;;5017755;28;20574;-79
2022/01/01 01:33:03;;;;;;;23.80;8.03;;;13.00;99.90;;;;;;5017383;28;20267;-79
2022/01/01 01:35:28;;;;;;;16.63;8.57;;;13.00;99.90;;;;;;5018508;28;20239;-79
2022/01/01 01:37:54;;;;;;;14.07;7.53;;;13.00;99.90;;;;;;5018572;28;20173;-79
2022/01/01 01:40:20;;;;;;;19.57;8.87;;;13.00;99.90;;;;;;5019712;28;20204;-79
2022/01/01 01:42:46;;;;;;;13.10;8.47;;;13.00;99.90;;;;;;5019436;28;20173;-79
2022/01/01 01:45:16;;;;;;;14.87;8.47;;;13.00;99.90;;;;;;5023287;28;20176;-79
2022/01/01 01:47:43;;;;;;;18.80;9.53;;;13.00;99.90;;;;;;5022312;28;20169;-80
2022/01/01 01:50:10;;;;;;;14.13;8.97;;;13.00;99.90;;;;;;5024440;28;20363;-79
2022/01/01 01:52:38;;;;;;;19.47;9.17;;;12.90;99.90;;;;;;5024260;28;20635;-80
2022/01/01 01:55:07;;;;;;;22.93;9.97;;;12.90;99.90;;;;;;5023382;28;20200;-79
2022/01/01 01:57:35;;;;;;;18.70;9.57;;;12.90;99.90;;;;;;5023389;28;20177;-79
2022/01/01 02:00:04;;;;;;;20.97;10.23;;;12.90;99.90;;;;;;5021393;28;20240;-80
2022/01/01 02:02:30;;;;;;;25.50;11.03;;;12.90;99.90;;;;;;5048201;22;20280;-96
2022/01/01 02:04:55;;;;;;;20.70;11.33;;;12.80;99.90;;;;;;5041969;28;20161;-95
2022/01/01 02:07:21;;;;;;;21.97;11.23;;;13.00;99.90;;;;;;5041705;28;20188;-95
2022/01/01 02:09:47;;;;;;;21.30;11.10;;;12.90;99.90;;;;;;5041464;28;20219;-96
2022/01/01 02:12:12;;;;;;;21.47;11.50;;;13.00;99.90;;;;;;5041926;28;20169;-96
2022/01/01 02:15:06;;;;;;;20.60;11.83;;;13.00;99.90;;;;;;5042391;28;20193;-96
2022/01/01 02:17:32;;;;;;;24.07;12.03;;;13.40;99.90;;;;;;5041765;28;20241;-96
2022/01/01 02:20:04;;;;;;;23.37;12.07;;;12.90;99.90;;;;;;5041857;28;20154;-96
2022/01/01 02:22:48;;;;;;;25.43;12.53;;;13.10;99.90;;;;;;5041839;28;20176;-94
2022/01/01 02:25:16;;;;;;;26.17;12.70;;;12.90;99.90;;;;;;5042384;28;20146;-95
2022/01/01 02:27:42;;;;;;;24.50;12.53;;;12.90;99.90;;;;;;5041673;28;20209;-95
2022/01/01 02:30:10;;;;;;;26.00;13.97;;;12.90;99.90;;;;;;5041952;28;20149;-94
2022/01/01 02:32:36;;;;;;;23.70;14.00;;;12.80;99.90;;;;;;5041586;28;20165;-95
2022/01/01 02:35:04;;;;;;;28.63;14.13;;;12.80;99.90;;;;;;5042043;28;20193;-94
2022/01/01 02:37:31;;;;;;;25.53;14.40;;;12.80;99.90;;;;;;5041569;28;20192;-95
2022/01/01 02:39:57;;;;;;;27.93;15.33;;;12.80;99.90;;;;;;5041462;28;20222;-95
2022/01/01 02:42:23;;;;;;;27.60;14.73;;;12.70;99.90;;;;;;5041474;28;20172;-95
2022/01/01 02:44:50;;;;;;;32.83;15.67;;;12.80;99.90;;;;;;5041558;28;20189;-94
2022/01/01 02:47:17;;;;;;;28.70;16.40;;;12.70;99.90;;;;;;5041211;28;20205;-95
2022/01/01 02:49:43;;;;;;;27.53;14.70;;;12.60;99.90;;;;;;5041341;28;20164;-94
2022/01/01 02:52:09;;;;;;;26.20;15.00;;;12.70;99.90;;;;;;5041031;28;20181;-94
2022/01/01 02:54:34;;;;;;;28.13;14.93;;;13.10;99.90;;;;;;5040380;28;20256;-94
2022/01/01 02:57:00;;;;;;;26.03;14.40;;;12.80;99.90;;;;;;5040342;28;20172;-94
2022/01/01 02:59:26;;;;;;;28.23;14.93;;;12.70;99.90;;;;;;5041012;28;20204;-95
2022/01/01 03:01:52;;;;;;;29.67;14.97;;;12.70;99.90;;;;;;5041001;28;20197;-95
2022/01/01 03:04:17;;;;;;;26.63;14.87;;;12.70;99.90;;;;;;5041113;28;20188;-95
2022/01/01 03:06:45;;;;;;;27.00;13.20;;;12.80;99.90;;;;;;5041082;28;20161;-95
2022/01/01 03:09:10;;;;;;;26.87;14.30;;;12.70;99.90;;;;;;5040630;28;20220;-95
2022/01/01 03:11:36;;;;;;;27.93;14.33;;;12.70;99.90;;;;;;5040686;28;20161;-96
2022/01/01 03:14:02;;;;;;;25.30;13.13;;;12.90;99.90;;;;;;5040754;28;20184;-96
2022/01/01 03:16:28;;;;;;;21.87;12.70;;;12.70;99.90;;;;;;5035179;23;20225;-77
2022/01/01 03:18:53;;;;;;;24.30;13.20;;;12.70;99.90;;;;;;4994957;28;20197;-76
2022/01/01 03:21:19;;;;;;;21.93;12.83;;;12.70;99.90;;;;;;4995822;28;20556;-76
2022/01/01 03:23:44;;;;;;;22.63;13.30;;;12.70;99.90;;;;;;4996023;28;20186;-76
2022/01/01 03:26:10;;;;;;;22.57;12.90;;;12.70;99.90;;;;;;4995848;28;20174;-76
2022/01/01 03:28:36;;;;;;;28.87;13.10;;;12.70;99.90;;;;;;4994731;28;20184;-76
2022/01/01 03:31:01;;;;;;;27.60;13.17;;;12.70;99.90;;;;;;4995471;28;20657;-76
2022/01/01 03:33:27;;;;;;;21.67;12.37;;;12.70;99.90;;;;;;4994563;28;20678;-76
2022/01/01 03:35:53;;;;;;;21.97;12.70;;;12.60;99.90;;;;;;4995730;28;20177;-76
2022/01/01 03:38:19;;;;;;;22.17;12.73;;;12.60;99.90;;;;;;4995871;28;20170;-76
2022/01/01 03:40:44;;;;;;;24.37;13.27;;;12.60;99.90;;;;;;4995272;28;20182;-76
2022/01/01 03:43:10;;;;;;;23.40;12.53;;;12.60;99.90;;;;;;4995861;28;20185;-76
2022/01/01 03:45:36;;;;;;;22.10;12.50;;;12.60;99.90;;;;;;4995629;28;20178;-76
2022/01/01 03:48:05;;;;;;;23.93;12.73;;;12.60;99.90;;;;;;4995801;28;20180;-76
2022/01/01 03:50:31;;;;;;;26.17;12.27;;;12.50;99.90;;;;;;4993801;28;20193;-77
2022/01/01 03:52:57;;;;;;;24.83;12.60;;;12.50;99.90;;;;;;4994086;28;20248;-76
2022/01/01 03:55:22;;;;;;;21.00;11.87;;;12.50;99.90;;;;;;4995353;28;20260;-76
2022/01/01 03:57:48;;;;;;;19.33;12.07;;;12.50;99.90;;;;;;4994025;28;20188;-76
2022/01/01 04:00:15;;;;;;;23.30;12.80;;;12.50;99.90;;;;;;4993804;28;20185;-77
2022/01/01 04:02:41;;;;;;;21.90;11.83;;;12.50;99.90;;;;;;4994063;28;20212;-76
2022/01/01 04:05:07;;;;;;;23.63;12.73;;;12.50;99.90;;;;;;4995304;28;20544;-76
2022/01/01 04:07:33;;;;;;;19.43;11.63;;;12.50;99.90;;;;;;4993687;28;20192;-76
2022/01/01 04:09:58;;;;;;;21.67;12.10;;;12.50;99.90;;;;;;4995017;28;20178;-75
2022/01/01 04:12:25;;;;;;;19.27;11.80;;;12.40;99.90;;;;;;4994928;28;20208;-74
2022/01/01 04:14:52;;;;;;;19.70;11.80;;;12.40;99.90;;;;;;4994831;28;20201;-74
2022/01/01 04:17:17;;;;;;;23.67;10.37;;;12.40;99.90;;;;;;4994870;28;20189;-74
2022/01/01 04:19:43;;;;;;;20.33;11.73;;;12.40;99.90;;;;;;4993296;28;20251;-74
2022/01/01 04:22:10;;;;;;;23.27;10.87;;;12.40;99.90;;;;;;4994600;28;20602;-74
2022/01/01 04:24:37;;;;;;;19.53;10.60;;;12.40;99.90;;;;;;4993490;28;20182;-74
2022/01/01 04:27:04;;;;;;;24.77;9.60;;;12.40;99.90;;;;;;4994677;28;20182;-74
2022/01/01 04:29:30;;;;;;;18.87;9.43;;;12.40;99.90;;;;;;4994281;28;20181;-76
2022/01/01 04:31:55;;;;;;;19.43;7.87;;;12.40;99.90;;;;;;4994518;28;20197;-74
2022/01/01 04:34:22;;;;;;;17.83;8.13;;;12.40;99.90;;;;;;4994539;28;20208;-74
2022/01/01 04:36:53;;;;;;;15.67;7.20;;;12.40;99.90;;;;;;4994617;28;20184;-74
2022/01/01 04:39:18;;;;;;;13.10;6.70;;;12.40;99.90;;;;;;4994691;28;20249;-74
2022/01/01 04:41:44;;;;;;;17.80;6.83;;;12.40;99.90;;;;;;4994035;28;20284;-74
2022/01/01 04:44:09;;;;;;;13.87;6.40;;;12.40;99.90;;;;;;4994209;28;20192;-74
2022/01/01 04:46:35;;;;;;;15.87;6.37;;;12.40;99.90;;;;;;4994524;28;20181;-74
2022/01/01 04:49:01;;;;;;;16.63;6.47;;;12.40;99.90;;;;;;4993063;28;20181;-74
2022/01/01 04:51:26;;;;;;;12.17;5.80;;;12.50;99.90;;;;;;4993945;28;20248;-74
2022/01/01 04:53:58;;;;;;;21.33;7.23;;;12.40;99.90;;;;;;4992921;28;20240;-74
2022/01/01 04:56:24;;;;;;;16.40;6.67;;;12.50;99.90;;;;;;4994253;28;20517;-74
2022/01/01 04:58:50;;;;;;;15.03;6.87;;;12.50;99.90;;;;;;4993068;28;20178;-74
2022/01/01 05:01:16;;;;;;;13.40;6.73;;;12.50;99.90;;;;;;4993795;28;20672;-74
2022/01/01 05:03:41;;;;;;;19.60;6.90;;;12.50;99.90;;;;;;4993254;28;20731;-74
2022/01/01 05:06:07;;;;;;;20.20;7.60;;;12.50;99.90;;;;;;4994015;28;20176;-74
2022/01/01 05:08:32;;;;;;;20.70;7.17;;;12.60;99.90;;;;;;4993950;28;20181;-74
2022/01/01 05:10:58;;;;;;;18.07;7.73;;;12.60;99.90;;;;;;4993613;28;20579;-74
2022/01/01 05:13:23;;;;;;;14.43;7.10;;;12.70;99.90;;;;;;4993875;28;20263;-75
2022/01/01 05:15:50;;;;;;;16.97;7.87;;;12.70;99.90;;;;;;4993838;28;20259;-74
2022/01/01 05:18:16;;;;;;;14.07;6.93;;;12.70;99.90;;;;;;4993817;28;20524;-74
2022/01/01 05:20:42;;;;;;;14.87;7.60;;;12.70;99.90;;;;;;4993297;28;20193;-76
2022/01/01 05:23:07;;;;;;;19.07;7.57;;;12.70;99.90;;;;;;4994107;28;20169;-74
2022/01/01 05:25:33;;;;;;;16.60;8.07;;;12.70;99.90;;;;;;4992728;28;20722;-75
2022/01/01 05:27:58;;;;;;;15.97;7.70;;;12.70;99.90;;;;;;4992123;28;20174;-74
2022/01/01 05:30:24;;;;;;;11.53;7.23;;;12.60;99.90;;;;;;4993392;28;20185;-75
2022/01/01 05:32:49;;;;;;;17.77;7.50;;;12.70;99.90;;;;;;4993651;28;20196;-74
2022/01/01 05:35:15;;;;;;;13.27;7.47;;;12.70;99.90;;;;;;4993714;28;20190;-75
2022/01/01 05:37:40;;;;;;;16.63;7.97;;;12.70;99.90;;;;;;4993713;28;20180;-74
2022/01/01 05:40:07;;;;;;;17.30;7.73;;;12.60;99.90;;;;;;4993303;28;20177;-75
2022/01/01 05:42:32;;;;;;;13.10;7.20;;;12.60;99.90;;;;;;4993622;28;20190;-74
2022/01/01 05:44:58;;;;;;;16.77;7.13;;;12.60;99.90;;;;;;4993440;28;20648;-74
2022/01/01 05:47:23;;;;;;;14.20;7.60;;;12.60;99.90;;;;;;4993530;28;20667;-75
2022/01/01 05:49:49;;;;;;;13.13;6.80;;;12.50;99.90;;;;;;4992130;28;20178;-75
2022/01/01 05:52:14;;;;;;;16.83;7.50;;;12.50;99.90;;;;;;4993392;28;20193;-75
2022/01/01 05:54:40;;;;;;;15.03;7.33;;;12.50;99.90;;;;;;4993412;28;20215;-75
2022/01/01 05:57:06;;;;;;;15.27;6.43;;;12.50;99.90;;;;;;4993702;28;20217;-75
2022/01/01 05:59:31;;;;;;;15.17;6.90;;;12.50;99.90;;;;;;4991987;28;20216;-75
2022/01/01 06:01:57;;;;;;;14.20;6.77;;;12.50;99.90;;;;;;4993997;28;20198;-74
2022/01/01 06:04:23;;;;;;;14.47;6.43;;;12.50;99.90;;;;;;4993341;28;20177;-74
2022/01/01 06:06:48;;;;;;;14.67;5.93;;;12.50;99.90;;;;;;4993348;28;20656;-75
2022/01/01 06:09:14;;;;;;;13.60;5.67;;;12.50;99.90;;;;;;4993346;28;20180;-74
2022/01/01 06:11:40;;;;;;;13.23;5.33;;;12.50;99.90;;;;;;4992786;28;20307;-75
2022/01/01 06:14:05;;;;;;;12.07;6.50;;;12.50;99.90;;;;;;4993390;28;20197;-75
2022/01/01 06:16:31;;;;;;;15.37;5.33;;;12.40;99.90;;;;;;4991838;28;20189;-75
2022/01/01 06:18:56;;;;;;;13.80;4.83;;;12.40;99.90;;;;;;4992038;28;20668;-75
2022/01/01 06:21:22;;;;;;;10.77;4.83;;;12.40;99.90;;;;;;4992895;28;20300;-75
2022/01/01 06:23:47;;;;;;;10.10;4.40;;;12.40;99.90;;;;;;4992012;28;20216;-75
2022/01/01 06:26:15;;;;;;;13.63;4.90;;;12.40;99.90;;;;;;4993227;28;20185;-74
2022/01/01 06:28:41;;;;;;;12.23;4.93;;;12.40;99.90;;;;;;4993150;28;20257;-74
2022/01/01 06:31:06;;;;;;;11.07;4.67;;;12.40;99.90;;;;;;4994858;28;20232;-75
2022/01/01 06:33:32;;;;;;;12.77;4.87;;;12.40;99.90;;;;;;4995435;28;20363;-75
2022/01/01 06:35:57;;;;;;;9.47;4.03;;;12.40;99.90;;;;;;4995568;28;20196;-74
2022/01/01 06:38:23;;;;;;;11.63;4.17;;;12.40;99.90;;;;;;4996764;28;20174;-75
2022/01/01 06:40:48;;;;;;;13.20;4.10;;;12.40;99.90;;;;;;4996232;28;20283;-75
2022/01/01 06:43:16;;;;;;;11.43;4.70;;;12.40;99.90;;;;;;4995674;28;20557;-74
2022/01/01 06:45:41;;;;;;;11.63;3.73;;;12.40;99.90;;;;;;4996570;28;20166;-74
2022/01/01 06:48:07;;;;;;;10.10;3.57;;;12.40;99.90;;;;;;4995264;28;20184;-74
2022/01/01 06:50:34;;;;;;;9.63;3.83;;;12.50;99.90;;;;;;4994890;28;20170;-75
2022/01/01 06:52:59;;;;;;;11.67;3.60;;;12.50;99.90;;;;;;4996354;28;20612;-74
2022/01/01 06:55:25;;;;;;;7.40;3.47;;;12.50;99.90;;;;;;4996472;28;20248;-74
2022/01/01 06:57:50;;;;;;;10.63;3.70;;;12.50;99.90;;;;;;4996597;28;20169;-74
2022/01/01 07:00:17;;;;;;;9.50;3.53;;;12.50;99.90;;;;;;4996069;28;20647;-74
2022/01/01 07:02:44;;;;;;;12.10;3.90;;;12.50;99.90;;;;;;4994964;28;20712;-74
2022/01/01 07:05:11;;;;;;;9.07;2.83;;;12.50;99.90;;;;;;4996234;28;20200;-74
2022/01/01 07:07:37;;;;;;;6.73;3.00;;;12.50;99.90;;;;;;4996454;28;20174;-74
2022/01/01 07:10:08;;;;;;;11.60;3.43;;;12.50;99.90;;;;;;4995934;28;20178;-77
2022/01/01 07:12:35;;;;;;;11.20;4.07;;;12.50;99.90;;;;;;4996079;28;20205;-75
2022/01/01 07:15:01;;;;;;;10.90;3.03;;;12.50;99.90;;;;;;4996085;28;20190;-74
2022/01/01 07:17:26;;;;;;;9.13;3.20;;;12.50;99.90;;;;;;4994920;28;20186;-75
2022/01/01 07:19:52;;;;;;;8.53;2.87;;;12.40;99.90;;;;;;4995681;28;20268;-77
2022/01/01 07:22:18;;;;;;;8.47;2.93;;;12.40;99.90;;;;;;4994710;28;20194;-74
2022/01/01 07:24:44;;;;;;;9.37;3.60;;;12.40;99.90;;;;;;4994721;28;20317;-76
2022/01/01 07:27:13;;;;;;;5.87;2.97;;;12.40;99.90;;;;;;4996013;28;20675;-74
2022/01/01 07:29:39;;;;;;;9.57;3.23;;;12.40;99.90;;;;;;4994424;28;20186;-78
2022/01/01 07:32:06;;;;;;;10.53;3.13;;;12.40;99.90;;;;;;4994540;28;20283;-74
2022/01/01 07:34:31;;;;;;;9.53;3.23;;;12.40;99.90;;;;;;4995598;28;20198;-75
2022/01/01 07:36:57;;;;;;;9.77;3.43;;;12.40;99.90;;;;;;4995765;28;20240;-74
2022/01/01 07:39:23;;;;;;;11.70;3.27;;;12.40;99.90;;;;;;4995732;28;20181;-76
2022/01/01 07:41:48;;;;;;;9.67;3.47;;;12.40;99.90;;;;;;4994154;28;20193;-77
2022/01/01 07:44:14;;;;;;;11.00;3.73;;;12.40;99.90;;;;;;4994691;28;20655;-76
2022/01/01 07:46:40;;;;;;;10.97;3.60;;;12.40;99.90;;;;;;4994874;28;20208;-77
2022/01/01 07:49:06;;;;;;;10.07;3.43;;;12.40;99.90;;;;;;4994499;28;20276;-77
2022/01/01 07:51:32;;;;;;;11.87;3.37;;;12.40;99.90;;;;;;4994937;28;20688;-75
2022/01/01 07:53:57;;;;;;;10.27;3.67;;;12.40;99.90;;;;;;4994578;28;20202;-76
2022/01/01 07:56:23;;;;;;;9.63;3.90;;;12.40;99.90;;;;;;4995604;28;20177;-76
2022/01/01 07:58:49;;;;;;;14.53;4.43;;;12.40;99.90;;;;;;4995773;28;20165;-76
2022/01/01 08:01:14;;;;;;;18.97;4.13;;;12.40;99.90;;;;;;5017033;23;20234;-77
2022/01/01 08:03:40;;;;;;;14.53;4.90;;;12.40;99.90;;;;;;4975172;28;20167;-76
2022/01/01 08:06:05;;;;;;;14.63;3.50;;;12.40;99.90;;;;;;4976591;28;20171;-77
2022/01/01 08:08:31;;;;;;;8.03;3.23;;;12.40;99.90;;;;;;4975767;28;20180;-76
2022/01/01 08:10:58;;;;;;;11.77;3.83;;;12.40;99.90;;;;;;5006757;28;20186;-76
2022/01/01 08:13:25;;;;;;;7.93;3.70;;;12.40;99.90;;;;;;4974846;28;20206;-76
2022/01/01 08:15:52;;;;;;;11.63;3.17;;;12.40;99.90;;;;;;4976140;28;20593;-76
2022/01/01 08:18:18;;;;;;;12.10;3.20;;;12.40;99.90;;;;;;4975808;28;20253;-77
2022/01/01 08:20:44;;;;;;;9.37;3.50;;;12.40;99.90;;;;;;4975499;28;20210;-76
2022/01/01 08:23:10;;;;;;;8.70;3.30;;;12.40;99.90;;;;;;4974134;28;20203;-76
2022/01/01 08:25:35;;;;;;;14.93;3.83;;;12.40;99.90;;;;;;4974052;28;20185;-75
2022/01/01 08:28:01;;;;;;;8.90;3.10;;;12.40;99.90;;;;;;4975400;28;20170;-76
2022/01/01 08:30:27;;;;;;;11.43;3.53;;;12.40;99.90;;;;;;4973555;28;20198;-76
2022/01/01 08:32:53;;;;;;;7.90;3.00;;;12.40;99.90;;;;;;4974160;28;20702;-76
2022/01/01 08:35:18;;;;;;;12.30;3.07;;;12.40;99.90;;;;;;4973810;28;20707;-76
2022/01/01 08:37:44;;;;;;;6.13;2.80;;;12.40;99.90;;;;;;4975347;28;20649;-76
2022/01/01 08:40:10;;;;;;;11.10;3.13;;;12.50;99.90;;;;;;4974776;28;20175;-76
2022/01/01 08:42:36;;;;;;;10.60;2.90;;;12.50;99.90;;;;;;4975820;28;20190;-77
2022/01/01 08:45:02;;;;;;;9.23;3.47;;;12.40;99.90;;;;;;4977293;28;20177;-80
2022/01/01 08:47:28;;;;;;;9.73;2.90;;;12.40;99.90;;;;;;4980604;28;20178;-79
2022/01/01 08:49:55;;;;;;;8.20;3.13;;;12.40;99.90;;;;;;4978550;28;20181;-79
2022/01/01 08:52:22;;;;;;;6.83;2.97;;;12.50;99.90;;;;;;4980705;28;20224;-78
2022/01/01 08:54:49;;;;;;;8.77;3.10;;;12.50;99.90;;;;;;4979487;28;20198;-80
2022/01/01 08:57:16;;;;;;;11.47;3.00;;;12.50;99.90;;;;;;4981252;28;20206;-80
2022/01/01 08:59:41;;;;;;;7.53;2.73;;;12.50;99.90;;;;;;4986232;28;20178;-79
2022/01/01 09:02:08;;;;;;;9.87;3.67;;;12.50;99.90;;;;;;4991745;28;20703;-80
2022/01/01 09:04:33;;;;;;;8.87;3.10;;;12.60;99.90;;;;;;4985259;28;20178;-81
2022/01/01 09:06:59;;;;;;;8.37;3.30;;;12.50;99.90;;;;;;4980801;28;20174;-79
2022/01/01 09:09:25;;;;;;;6.53;2.83;;;12.50;99.90;;;;;;4978952;28;20182;-79
2022/01/01 09:11:50;;;;;;;7.73;3.13;;;12.50;99.90;;;;;;4979954;28;20197;-79
2022/01/01 09:14:16;;;;;;;7.87;3.13;;;12.50;99.90;;;;;;4978437;28;20290;-80
2022/01/01 09:16:41;;;;;;;6.73;3.00;;;12.60;99.90;;;;;;4980637;28;20170;-80
2022/01/01 09:19:07;;;;;;;8.13;2.90;;;12.60;99.90;;;;;;4980077;28;20166;-80
2022/01/01 09:21:32;;;;;;;7.63;3.20;;;12.60;99.90;;;;;;4980220;28;20203;-80
2022/01/01 09:23:58;;;;;;;15.40;3.57;;;12.60;99.90;;;;;;4978826;28;20178;-77
2022/01/01 09:26:26;;;;;;;11.23;3.57;;;12.60;99.90;;;;;;4974893;28;20261;-76
2022/01/01 09:28:51;;;;;;;11.10;3.50;;;12.70;99.90;;;;;;4975277;28;20201;-76
2022/01/01 09:31:17;;;;;;;8.37;2.87;;;12.70;99.90;;;;;;4972909;28;20616;-77
2022/01/01 09:33:43;;;;;;;8.43;3.10;;;12.80;99.90;;;;;;4973559;28;20205;-77
2022/01/01 09:36:09;;;;;;;7.03;2.20;;;12.70;99.90;;;;;;4974734;28;20202;-76
2022/01/01 09:38:36;;;;;;;8.30;2.80;;;12.80;99.90;;;;;;4973936;28;20185;-78
2022/01/01 09:41:03;;;;;;;10.70;2.77;;;12.80;99.90;;;;;;4981504;28;20233;-78
2022/01/01 09:43:30;;;;;;;14.50;3.10;;;12.80;99.90;;;;;;4982527;28;20622;-79
2022/01/01 09:45:57;;;;;;;6.63;3.10;;;12.90;99.90;;;;;;4982943;28;20178;-79
2022/01/01 09:48:24;;;;;;;7.77;3.00;;;12.90;99.90;;;;;;4981387;28;20182;-79
2022/01/01 09:50:54;;;;;;;10.97;2.93;;;12.90;99.90;;;;;;4983092;28;20187;-78
2022/01/01 09:53:24;;;;;;;8.10;2.97;;;13.00;99.90;;;;;;4978947;28;20182;-78
2022/01/01 09:55:51;;;;;;;8.67;2.97;;;13.00;99.90;;;;;;4980287;28;20170;-77
2022/01/01 09:58:22;;;;;;;8.80;3.23;;;13.00;99.90;;;;;;4978919;28;20178;-78
2022/01/01 10:00:49;;;;;;;6.93;2.60;;;13.00;99.90;;;;;;4978930;28;20178;-78
2022/01/01 10:03:15;;;;;;;10.97;2.70;;;13.10;99.90;;;;;;4980172;28;20213;-78
2022/01/01 10:06:09;;;;;;;7.67;2.60;;;13.10;99.90;;;;;;4987278;28;20182;-79
2022/01/01 10:08:39;;;;;;;10.93;3.43;;;13.10;99.90;;;;;;4989074;28;20194;-78
2022/01/01 10:11:06;;;;;;;5.30;2.20;;;13.20;99.90;;;;;;4987059;28;20189;-79
2022/01/01 10:13:37;;;;;;;7.50;2.60;;;13.20;99.90;;;;;;4986341;28;20615;-80
2022/01/01 10:16:07;;;;;;;11.50;3.23;;;13.20;99.90;;;;;;4985850;28;20175;-79
2022/01/01 10:18:38;;;;;;;9.77;2.50;;;13.30;99.90;;;;;;4985037;28;20736;-78
2022/01/01 10:21:09;;;;;;;7.43;2.33;;;13.30;99.90;;;;;;4986619;28;20178;-79
2022/01/01 10:23:36;;;;;;;8.80;2.47;;;13.30;99.90;;;;;;4986379;28;20170;-79
2022/01/01 10:29:23;;;;;;;8.93;2.93;;;13.40;99.90;;;;;;4985006;28;20238;-79
2022/01/01 10:31:58;;;;;;;5.47;2.20;;;13.50;99.90;;;;;;4996693;28;20301;-79
2022/01/01 10:34:26;;;;;;;7.57;2.67;;;13.50;99.90;;;;;;4966965;28;20202;-80
2022/01/01 10:36:52;;;;;;;10.27;2.50;;;13.60;99.90;;;;;;4964456;28;20205;-78
2022/01/01 10:39:19;;;;;;;6.93;2.13;;;13.50;99.90;;;;;;4996686;28;20241;-79
2022/01/01 10:41:59;;;;;;;7.63;2.10;;;13.60;99.90;;;;;;4984607;28;20285;-78
2022/01/01 10:44:36;;;;;;;8.40;2.77;;;13.60;99.90;;;;;;4982219;28;20552;-78
2022/01/01 10:47:06;;;;;;;6.23;2.30;;;13.60;99.90;;;;;;4984666;28;20158;-78
2022/01/01 10:52:12;;;;;;;4.80;1.83;;;13.70;99.90;;;;;;4984367;28;20236;-78
2022/01/01 10:54:39;;;;;;;6.90;2.63;;;13.70;99.90;;;;;;4978597;28;20198;-76
2022/01/01 10:57:08;;;;;;;6.83;2.30;;;13.70;99.90;;;;;;4978310;28;20601;-77
2022/01/01 10:59:38;;;;;;;6.67;2.43;;;13.70;99.90;;;;;;4978020;28;20171;-76
2022/01/01 11:02:06;;;;;;;6.73;2.43;;;13.80;99.90;;;;;;4976401;28;20222;-77
2022/01/01 11:04:33;;;;;;;6.30;1.97;;;13.80;99.90;;;;;;4977922;28;20602;-77
2022/01/01 11:06:59;;;;;;;7.07;2.30;;;13.80;99.90;;;;;;4976862;28;20182;-76
2022/01/01 11:09:26;;;;;;;5.93;2.23;;;13.80;99.90;;;;;;4978115;28;20190;-76
2022/01/01 11:11:57;;;;;;;8.13;2.20;;;13.90;99.90;;;;;;4976920;28;20596;-77
2022/01/01 11:14:24;;;;;;;8.13;2.47;;;13.80;99.90;;;;;;4978878;28;20213;-76
2022/01/01 11:16:51;;;;;;;9.57;2.70;;;13.80;99.90;;;;;;4978497;28;20179;-77
2022/01/01 11:19:17;;;;;;;5.80;2.10;;;13.90;99.90;;;;;;4977913;28;20178;-78
2022/01/01 11:21:43;;;;;;;6.97;2.50;;;13.90;99.90;;;;;;4956880;29;20205;-77
2022/01/01 11:24:11;;;;;;;8.47;2.30;;;13.90;99.90;;;;;;4973359;28;20269;-77
2022/01/01 11:26:37;;;;;;;5.97;2.33;;;13.90;99.90;;;;;;4957297;28;20189;-77
2022/01/01 11:29:02;;;;;;;3.87;1.77;;;14.00;99.90;;;;;;4957718;29;20183;-77
2022/01/01 11:31:28;;;;;;;8.17;2.20;;;14.10;99.90;;;;;;4976583;28;20241;-77
2022/01/01 11:34:00;;;;;;;5.27;2.03;;;14.00;99.90;;;;;;4977987;28;20209;-77
2022/01/01 11:36:29;;;;;;;8.43;2.33;;;14.10;99.90;;;;;;4980653;28;20155;-78
2022/01/01 11:38:55;;;;;;;5.73;1.97;;;14.20;99.90;;;;;;4980050;28;20209;-78
2022/01/01 11:41:21;;;;;;;6.93;2.30;;;14.20;99.90;;;;;;4980852;28;20202;-78
2022/01/01 11:43:53;;;;;;;5.70;2.20;;;14.20;99.90;;;;;;4979188;28;20186;-77
2022/01/01 11:46:29;;;;;;;5.40;2.07;;;14.20;99.90;;;;;;4978267;28;20191;-78
2022/01/01 11:48:57;;;;;;;7.57;2.77;;;14.30;99.90;;;;;;4977550;28;20171;-77
2022/01/01 11:51:38;;;;;;;6.43;2.50;;;14.30;99.90;;;;;;4976573;28;20221;-77
2022/01/01 11:54:21;;;;;;;7.80;2.60;;;14.30;99.90;;;;;;4978063;28;20198;-77
2022/01/01 11:56:49;;;;;;;5.07;2.47;;;14.30;99.90;;;;;;4977180;28;20193;-77
2022/01/01 11:59:39;;;;;;;5.53;2.40;;;14.30;99.90;;;;;;4976811;28;20195;-77
2022/01/01 12:02:20;;;;;;;7.23;2.63;;;14.30;99.90;;;;;;4973573;28;20226;-77
2022/01/01 12:04:55;;;;;;;7.90;2.37;;;14.30;99.90;;;;;;4959266;28;20729;-77
2022/01/01 12:07:24;;;;;;;7.03;2.47;;;14.30;99.90;;;;;;4958732;28;20162;-77
2022/01/01 12:10:02;;;;;;;4.37;1.83;;;14.40;99.90;;;;;;4957408;28;20183;-77
2022/01/01 12:12:50;;;;;;;6.13;2.37;;;14.40;99.90;;;;;;4958625;28;20271;-77
2022/01/01 12:18:37;;;;;;;4.90;1.97;;;14.40;99.90;;;;;;4958449;29;20190;-77
2022/01/01 12:21:03;;;;;;;4.77;2.20;;;14.40;99.90;;;;;;4971349;28;20201;-78
2022/01/01 12:23:36;;;;;;;5.13;2.23;;;14.40;99.90;;;;;;4979953;28;20174;-78
2022/01/01 12:26:08;;;;;;;8.83;2.87;;;14.40;99.90;;;;;;4980358;28;20182;-79
2022/01/01 12:28:36;;;;;;;6.70;2.37;;;14.50;99.90;;;;;;4980213;28;20198;-78
2022/01/01 12:31:21;;;;;;;5.93;2.20;;;14.50;99.90;;;;;;4979841;28;20653;-79
2022/01/01 12:33:54;;;;;;;7.57;2.33;;;14.60;99.90;;;;;;4978404;28;20668;-78
2022/01/01 12:36:28;;;;;;;5.17;2.07;;;14.50;99.90;;;;;;4980207;28;20250;-77
2022/01/01 12:39:07;;;;;;;3.93;2.07;;;14.60;99.90;;;;;;4978546;28;20262;-78
2022/01/01 12:41:41;;;;;;;4.87;2.13;;;14.60;99.90;;;;;;4979284;28;20209;-78
2022/01/01 12:44:20;;;;;;;7.30;2.23;;;14.70;99.90;;;;;;4979872;28;20177;-79
2022/01/01 12:46:49;;;;;;;5.33;1.90;;;14.70;99.90;;;;;;4978436;28;20174;-78